createdAt,value
2023-05-01T00:01:09.187Z,17.10
2023-05-01T00:03:40.152Z,17.00
2023-05-01T00:06:11.435Z,17.60
2023-05-01T00:08:42.338Z,17.50
2023-05-01T00:11:13.229Z,17.60
2023-05-01T00:13:44.078Z,17.80
2023-05-01T00:16:16.975Z,17.60
2023-05-01T00:18:47.890Z,17.40
2023-05-01T00:21:18.728Z,17.20
2023-05-01T00:23:49.924Z,17.70
2023-05-01T00:26:20.857Z,17.60
2023-05-01T00:28:51.733Z,17.50
2023-05-01T00:31:25.604Z,17.40
2023-05-01T00:33:57.302Z,17.20
2023-05-01T00:36:28.402Z,17.00
2023-05-01T00:38:59.255Z,17.40
2023-05-01T00:41:30.373Z,17.50
2023-05-01T00:44:01.438Z,17.30
2023-05-01T00:46:34.542Z,17.20
2023-05-01T00:49:05.604Z,17.20
2023-05-01T00:51:36.989Z,17.10
2023-05-01T00:54:07.854Z,16.90
2023-05-01T00:56:38.819Z,17.10
2023-05-01T00:59:09.742Z,16.80
2023-05-01T01:01:42.702Z,16.90
2023-05-01T01:04:14.040Z,17.20
2023-05-01T01:07:28.751Z,16.80
2023-05-01T01:10:33.602Z,16.50
2023-05-01T01:13:14.958Z,16.60
2023-05-01T01:16:19.485Z,16.50
2023-05-01T01:19:02.767Z,16.60
2023-05-01T01:21:41.783Z,16.40
2023-05-01T01:25:06.383Z,16.70
2023-05-01T01:28:29.296Z,16.90
2023-05-01T01:31:14.399Z,17.00
2023-05-01T01:34:02.464Z,16.70
2023-05-01T01:36:41.428Z,16.70
2023-05-01T01:39:34.810Z,16.90
2023-05-01T01:42:12.305Z,17.00
2023-05-01T01:44:52.843Z,16.70
2023-05-01T01:47:31.846Z,16.80
2023-05-01T01:50:07.100Z,16.60
2023-05-01T01:52:40.768Z,17.20
2023-05-01T01:55:14.146Z,17.00
2023-05-01T01:57:46.964Z,17.00
2023-05-01T02:00:19.158Z,17.10
2023-05-01T02:02:52.470Z,16.80
2023-05-01T02:05:25.117Z,16.90
2023-05-01T02:07:57.998Z,16.90
2023-05-01T02:10:30.071Z,16.90
2023-05-01T02:13:03.391Z,16.80
2023-05-01T02:15:34.948Z,16.80
2023-05-01T02:18:06.638Z,16.90
2023-05-01T02:20:38.316Z,17.10
2023-05-01T02:23:10.165Z,17.20
2023-05-01T02:25:42.253Z,17.10
2023-05-01T02:28:14.599Z,17.20
2023-05-01T02:30:47.203Z,17.10
2023-05-01T02:33:18.202Z,17.00
2023-05-01T02:35:49.552Z,16.90
2023-05-01T02:38:20.500Z,16.70
2023-05-01T02:40:58.057Z,16.70
2023-05-01T02:43:30.606Z,16.80
2023-05-01T02:46:04.642Z,16.80
2023-05-01T02:48:38.324Z,16.80
2023-05-01T02:51:10.009Z,16.80
2023-05-01T02:53:41.140Z,16.70
2023-05-01T02:56:12.930Z,16.60
2023-05-01T02:58:44.501Z,16.90
2023-05-01T03:01:15.465Z,16.60
2023-05-01T03:03:46.796Z,16.70
2023-05-01T03:06:19.461Z,16.90
2023-05-01T03:08:50.365Z,16.80
2023-05-01T03:11:21.549Z,16.90
2023-05-01T03:13:52.592Z,16.80
2023-05-01T03:16:23.695Z,16.80
2023-05-01T03:18:55.775Z,17.10
2023-05-01T03:21:26.710Z,17.20
2023-05-01T03:23:57.643Z,17.40
2023-05-01T03:26:28.728Z,17.60
2023-05-01T03:28:59.842Z,17.60
2023-05-01T03:31:30.766Z,17.40
2023-05-01T03:34:01.677Z,17.50
2023-05-01T03:36:33.976Z,17.20
2023-05-01T03:39:05.104Z,17.20
2023-05-01T03:41:36.146Z,17.10
2023-05-01T03:44:07.084Z,17.00
2023-05-01T03:46:38.275Z,17.50
2023-05-01T03:49:09.792Z,17.50
2023-05-01T03:51:40.673Z,17.50
2023-05-01T03:54:11.584Z,17.20
2023-05-01T03:56:42.490Z,17.20
2023-05-01T03:59:14.319Z,17.20
2023-05-01T04:01:45.279Z,17.30
2023-05-01T04:04:16.154Z,17.40
2023-05-01T04:06:49.746Z,17.50
2023-05-01T04:09:20.993Z,17.20
2023-05-01T04:11:51.904Z,17.50
2023-05-01T04:14:23.833Z,17.60
2023-05-01T04:16:55.086Z,17.40
2023-05-01T04:19:26.139Z,17.40
2023-05-01T04:21:57.063Z,17.20
2023-05-01T04:24:27.953Z,17.00
2023-05-01T04:26:58.856Z,17.20
2023-05-01T04:29:29.708Z,17.30
2023-05-01T04:32:01.069Z,17.20
2023-05-01T04:34:32.186Z,17.60
2023-05-01T04:37:03.742Z,17.90
2023-05-01T04:39:34.971Z,17.50
2023-05-01T04:42:06.082Z,17.30
2023-05-01T04:44:37.412Z,17.40
2023-05-01T04:47:08.457Z,17.20
2023-05-01T04:49:39.298Z,17.10
2023-05-01T04:52:10.879Z,17.00
2023-05-01T04:54:41.748Z,17.20
2023-05-01T04:57:12.697Z,17.10
2023-05-01T04:59:43.587Z,17.30
2023-05-01T05:02:14.608Z,17.20
2023-05-01T05:04:45.556Z,17.30
2023-05-01T05:07:16.733Z,17.50
2023-05-01T05:09:47.655Z,17.40
2023-05-01T05:12:18.504Z,17.40
2023-05-01T05:14:49.571Z,17.50
2023-05-01T05:17:20.644Z,17.50
2023-05-01T05:19:51.830Z,17.20
2023-05-01T05:22:23.692Z,17.50
2023-05-01T05:24:57.592Z,17.50
2023-05-01T05:27:29.064Z,17.40
2023-05-01T05:30:00.216Z,17.40
2023-05-01T05:32:31.230Z,17.40
2023-05-01T05:35:02.214Z,17.60
2023-05-01T05:37:33.419Z,17.30
2023-05-01T05:40:04.808Z,17.50
2023-05-01T05:42:35.720Z,17.70
2023-05-01T05:45:07.709Z,17.90
2023-05-01T05:47:38.829Z,17.80
2023-05-01T05:50:10.284Z,18.00
2023-05-01T05:52:41.643Z,18.20
2023-05-01T05:55:15.358Z,18.30
2023-05-01T05:57:46.293Z,18.20
2023-05-01T06:00:18.600Z,18.40
2023-05-01T06:02:49.591Z,18.30
2023-05-01T06:05:20.659Z,18.00
2023-05-01T06:07:51.574Z,17.80
2023-05-01T06:10:22.760Z,17.80
2023-05-01T06:12:58.759Z,17.70
2023-05-01T06:15:44.951Z,17.80
2023-05-01T06:18:16.267Z,17.70
2023-05-01T06:20:47.852Z,17.50
2023-05-01T06:23:19.033Z,17.50
2023-05-01T06:25:49.951Z,17.30
2023-05-01T06:28:21.568Z,17.50
2023-05-01T06:30:52.635Z,17.50
2023-05-01T06:33:23.656Z,17.60
2023-05-01T06:35:55.188Z,17.60
2023-05-01T06:38:29.283Z,18.10
2023-05-01T06:41:00.439Z,19.30
2023-05-01T06:43:31.863Z,19.90
2023-05-01T06:46:03.090Z,20.30
2023-05-01T06:48:33.986Z,20.50
2023-05-01T06:51:04.991Z,20.20
2023-05-01T06:53:36.906Z,19.90
2023-05-01T06:56:08.894Z,19.50
2023-05-01T06:58:39.807Z,19.50
2023-05-01T07:01:10.924Z,19.20
2023-05-01T07:03:42.257Z,18.90
2023-05-01T07:06:13.598Z,18.70
2023-05-01T07:08:44.530Z,18.60
2023-05-01T07:11:15.467Z,18.70
2023-05-01T07:13:46.363Z,18.90
2023-05-01T07:16:17.292Z,19.10
2023-05-01T07:18:48.174Z,19.00
2023-05-01T07:21:19.037Z,19.00
2023-05-01T07:23:49.915Z,18.90
2023-05-01T07:26:21.267Z,19.10
2023-05-01T07:28:52.320Z,19.10
2023-05-01T07:31:23.805Z,18.20
2023-05-01T07:33:54.746Z,18.60
2023-05-01T07:36:25.673Z,18.60
2023-05-01T07:38:57.870Z,18.80
2023-05-01T07:41:28.802Z,18.60
2023-05-01T07:43:59.996Z,19.30
2023-05-01T07:46:31.132Z,19.20
2023-05-01T07:49:02.136Z,18.70
2023-05-01T07:51:33.358Z,19.30
2023-05-01T07:54:04.880Z,19.20
2023-05-01T07:56:35.819Z,19.40
2023-05-01T07:59:06.893Z,19.30
2023-05-01T08:01:37.889Z,19.00
2023-05-01T08:04:09.136Z,19.20
2023-05-01T08:06:40.930Z,19.50
2023-05-01T08:09:11.838Z,19.40
2023-05-01T08:11:42.740Z,19.50
2023-05-01T08:14:13.613Z,19.40
2023-05-01T08:16:45.076Z,19.30
2023-05-01T08:19:16.046Z,19.40
2023-05-01T08:21:46.977Z,19.80
2023-05-01T08:24:17.874Z,19.60
2023-05-01T08:26:49.022Z,19.20
2023-05-01T08:29:19.876Z,19.60
2023-05-01T08:31:50.918Z,19.60
2023-05-01T08:34:22.948Z,20.00
2023-05-01T08:36:54.157Z,20.00
2023-05-01T08:39:25.327Z,19.80
2023-05-01T08:41:58.407Z,20.20
2023-05-01T08:44:31.592Z,20.40
2023-05-01T08:47:14.525Z,20.30
2023-05-01T08:49:47.224Z,20.40
2023-05-01T08:52:20.886Z,20.40
2023-05-01T08:54:56.789Z,20.10
2023-05-01T08:57:28.214Z,20.70
2023-05-01T09:00:00.809Z,20.60
2023-05-01T09:02:35.393Z,20.30
2023-05-01T09:05:08.148Z,20.40
2023-05-01T09:07:41.412Z,20.50
2023-05-01T09:10:21.483Z,21.00
2023-05-01T09:12:58.538Z,21.10
2023-05-01T09:15:31.077Z,21.20
2023-05-01T09:18:03.802Z,20.80
2023-05-01T09:20:38.146Z,21.20
2023-05-01T09:23:09.062Z,21.20
2023-05-01T09:25:40.012Z,21.20
2023-05-01T09:28:10.908Z,21.40
2023-05-01T09:30:42.110Z,21.40
2023-05-01T09:33:16.689Z,21.80
2023-05-01T09:35:56.053Z,22.30
2023-05-01T09:38:29.504Z,22.60
2023-05-01T09:41:05.913Z,22.50
2023-05-01T09:43:36.974Z,22.40
2023-05-01T09:46:10.791Z,22.60
2023-05-01T09:48:52.605Z,22.20
2023-05-01T09:51:34.652Z,21.80
2023-05-01T09:54:20.802Z,21.90
2023-05-01T09:56:52.273Z,22.30
2023-05-01T09:59:23.174Z,22.40
2023-05-01T10:01:54.231Z,22.70
2023-05-01T10:04:35.208Z,22.60
2023-05-01T10:07:13.825Z,22.70
2023-05-01T10:09:44.804Z,22.80
2023-05-01T10:12:28.609Z,23.00
2023-05-01T10:15:03.426Z,23.20
2023-05-01T10:17:41.335Z,22.90
2023-05-01T10:20:13.138Z,22.80
2023-05-01T10:22:44.540Z,22.90
2023-05-01T10:25:16.759Z,22.80
2023-05-01T10:27:49.291Z,22.80
2023-05-01T10:30:21.263Z,22.60
2023-05-01T10:32:52.993Z,22.60
2023-05-01T10:35:33.407Z,22.40
2023-05-01T10:38:09.579Z,22.80
2023-05-01T10:40:40.851Z,23.20
2023-05-01T10:43:32.289Z,23.10
2023-05-01T10:46:19.275Z,23.30
2023-05-01T10:48:50.196Z,22.90
2023-05-01T10:51:28.263Z,23.10
2023-05-01T10:54:14.641Z,23.30
2023-05-01T10:56:45.559Z,23.20
2023-05-01T10:59:16.518Z,23.30
2023-05-01T11:01:51.755Z,23.60
2023-05-01T11:04:22.828Z,23.60
2023-05-01T11:07:05.421Z,23.70
2023-05-01T11:09:42.518Z,23.60
2023-05-01T11:12:15.833Z,23.50
2023-05-01T11:14:57.225Z,23.20
2023-05-01T11:17:43.690Z,23.40
2023-05-01T11:20:37.638Z,23.70
2023-05-01T11:23:09.244Z,23.80
2023-05-01T11:25:40.964Z,23.80
2023-05-01T11:28:11.967Z,24.00
2023-05-01T11:30:42.886Z,23.60
2023-05-01T11:33:22.046Z,23.50
2023-05-01T11:36:00.479Z,23.70
2023-05-01T11:38:31.505Z,23.90
2023-05-01T11:41:04.449Z,24.20
2023-05-01T11:43:57.623Z,24.00
2023-05-01T11:46:31.400Z,24.10
2023-05-01T11:49:03.490Z,24.40
2023-05-01T11:51:34.581Z,23.80
2023-05-01T11:54:12.530Z,24.00
2023-05-01T11:56:44.586Z,24.40
2023-05-01T11:59:17.227Z,24.10
2023-05-01T12:01:48.209Z,23.90
2023-05-01T12:04:32.528Z,24.20
2023-05-01T12:07:03.650Z,24.40
2023-05-01T12:09:34.707Z,24.30
2023-05-01T12:12:05.924Z,24.00
2023-05-01T12:14:37.021Z,24.20
2023-05-01T12:17:09.824Z,24.50
2023-05-01T12:19:51.229Z,24.30
2023-05-01T12:22:22.184Z,24.30
2023-05-01T12:24:53.798Z,24.50
2023-05-01T12:27:24.755Z,24.80
2023-05-01T12:29:55.639Z,24.90
2023-05-01T12:32:33.857Z,24.70
2023-05-01T12:35:16.061Z,24.20
2023-05-01T12:37:47.022Z,24.20
2023-05-01T12:40:19.027Z,23.90
2023-05-01T12:42:57.997Z,24.40
2023-05-01T12:45:28.991Z,24.50
2023-05-01T12:48:00.026Z,24.30
2023-05-01T12:50:37.548Z,24.40
2023-05-01T12:53:09.860Z,24.80
2023-05-01T12:55:49.400Z,24.90
2023-05-01T12:58:20.823Z,24.70
2023-05-01T13:00:54.039Z,24.80
2023-05-01T13:03:28.048Z,24.90
2023-05-01T13:06:03.857Z,25.10
2023-05-01T13:08:39.766Z,24.90
2023-05-01T13:11:13.598Z,25.30
2023-05-01T13:13:46.181Z,25.50
2023-05-01T13:16:17.614Z,25.80
2023-05-01T13:18:52.879Z,25.60
2023-05-01T13:21:25.064Z,25.30
2023-05-01T13:24:01.300Z,25.50
2023-05-01T13:26:35.650Z,25.50
2023-05-01T13:29:06.908Z,24.90
2023-05-01T13:31:38.554Z,24.80
2023-05-01T13:34:09.633Z,24.60
2023-05-01T13:36:40.729Z,24.30
2023-05-01T13:39:21.038Z,24.40
2023-05-01T13:41:53.768Z,24.40
2023-05-01T13:44:24.752Z,23.90
2023-05-01T13:46:55.953Z,24.20
2023-05-01T13:49:27.044Z,24.20
2023-05-01T13:51:57.976Z,23.80
2023-05-01T13:54:29.061Z,23.00
2023-05-01T13:57:01.395Z,23.20
2023-05-01T13:59:42.927Z,23.70
2023-05-01T14:02:29.623Z,22.90
2023-05-01T14:05:01.299Z,23.00
2023-05-01T14:07:32.436Z,22.60
2023-05-01T14:10:03.708Z,22.50
2023-05-01T14:12:34.781Z,22.80
2023-05-01T14:15:11.602Z,23.20
2023-05-01T14:17:42.615Z,23.00
2023-05-01T14:20:13.516Z,23.10
2023-05-01T14:22:51.739Z,23.20
2023-05-01T14:25:35.398Z,23.20
2023-05-01T14:28:11.703Z,23.30
2023-05-01T14:30:42.623Z,24.00
2023-05-01T14:33:14.509Z,23.80
2023-05-01T14:35:50.909Z,23.90
2023-05-01T14:38:24.548Z,23.80
2023-05-01T14:40:55.446Z,24.20
2023-05-01T14:43:28.117Z,24.40
2023-05-01T14:45:59.359Z,24.90
2023-05-01T14:48:36.649Z,25.30
2023-05-01T14:51:14.953Z,25.80
2023-05-01T14:53:46.191Z,26.20
2023-05-01T14:56:17.115Z,25.80
2023-05-01T14:58:50.042Z,25.60
2023-05-01T15:01:21.596Z,25.40
2023-05-01T15:03:53.448Z,25.00
2023-05-01T15:06:24.948Z,25.00
2023-05-01T15:08:55.920Z,25.10
2023-05-01T15:11:27.127Z,24.80
2023-05-01T15:13:58.005Z,24.70
2023-05-01T15:16:28.965Z,24.40
2023-05-01T15:18:59.970Z,24.40
2023-05-01T15:21:31.649Z,24.20
2023-05-01T15:24:02.493Z,24.00
2023-05-01T15:26:33.417Z,24.20
2023-05-01T15:29:04.297Z,24.00
2023-05-01T15:31:35.259Z,24.00
2023-05-01T15:34:06.170Z,23.80
2023-05-01T15:36:37.066Z,24.00
2023-05-01T15:39:11.769Z,24.00
2023-05-01T15:41:43.121Z,23.80
2023-05-01T15:44:14.132Z,23.60
2023-05-01T15:46:48.893Z,24.00
2023-05-01T15:49:19.938Z,24.20
2023-05-01T15:51:51.347Z,23.80
2023-05-01T15:54:22.438Z,22.40
2023-05-01T15:56:53.741Z,22.80
2023-05-01T15:59:25.706Z,22.50
2023-05-01T16:01:57.003Z,22.60
2023-05-01T16:04:27.904Z,22.80
2023-05-01T16:06:58.896Z,23.20
2023-05-01T16:09:31.868Z,23.30
2023-05-01T16:12:03.333Z,23.30
2023-05-01T16:14:41.309Z,23.70
2023-05-01T16:17:12.401Z,23.80
2023-05-01T16:19:43.496Z,23.60
2023-05-01T16:22:17.325Z,23.40
2023-05-01T16:24:48.591Z,23.30
2023-05-01T16:27:19.447Z,23.20
2023-05-01T16:29:50.762Z,22.90
2023-05-01T16:32:24.144Z,23.10
2023-05-01T16:34:55.192Z,23.10
2023-05-01T16:37:27.021Z,23.00
2023-05-01T16:40:01.868Z,22.90
2023-05-01T16:42:33.434Z,23.10
2023-05-01T16:45:08.561Z,22.60
2023-05-01T16:47:39.772Z,22.10
2023-05-01T16:50:11.027Z,21.80
2023-05-01T16:52:41.934Z,22.00
2023-05-01T16:55:13.254Z,22.10
2023-05-01T16:57:44.644Z,21.50
2023-05-01T17:00:16.431Z,20.90
2023-05-01T17:02:49.851Z,20.90
2023-05-01T17:05:20.965Z,21.40
2023-05-01T17:07:52.005Z,21.50
2023-05-01T17:10:22.877Z,21.50
2023-05-01T17:12:53.790Z,21.40
2023-05-01T17:15:24.778Z,21.10
2023-05-01T17:17:55.729Z,21.10
2023-05-01T17:20:26.808Z,21.00
2023-05-01T17:22:57.651Z,21.10
2023-05-01T17:25:28.587Z,21.30
2023-05-01T17:27:59.448Z,20.70
2023-05-01T17:30:30.412Z,20.90
2023-05-01T17:33:01.420Z,20.90
2023-05-01T17:35:32.953Z,21.00
2023-05-01T17:38:03.834Z,20.90
2023-05-01T17:40:34.910Z,21.10
2023-05-01T17:43:05.806Z,21.40
2023-05-01T17:45:36.744Z,21.60
2023-05-01T17:48:08.207Z,21.60
2023-05-01T17:50:39.176Z,21.30
2023-05-01T17:53:10.820Z,20.70
2023-05-01T17:55:41.775Z,21.20
2023-05-01T17:58:13.473Z,21.10
2023-05-01T18:00:44.328Z,20.90
2023-05-01T18:03:15.301Z,20.90
2023-05-01T18:05:46.310Z,21.60
2023-05-01T18:08:17.454Z,21.10
2023-05-01T18:10:48.336Z,21.00
2023-05-01T18:13:19.933Z,20.70
2023-05-01T18:15:51.978Z,20.50
2023-05-01T18:18:23.461Z,20.80
2023-05-01T18:20:54.761Z,20.70
2023-05-01T18:23:25.670Z,20.70
2023-05-01T18:25:56.634Z,20.60
2023-05-01T18:28:27.765Z,20.70
2023-05-01T18:30:58.649Z,20.70
2023-05-01T18:33:29.629Z,20.70
2023-05-01T18:36:00.535Z,20.70
2023-05-01T18:38:31.812Z,20.30
2023-05-01T18:41:03.426Z,20.60
2023-05-01T18:43:34.300Z,20.70
2023-05-01T18:46:05.250Z,20.80
2023-05-01T18:48:36.302Z,20.90
2023-05-01T18:51:09.281Z,20.80
2023-05-01T18:53:40.732Z,21.00
2023-05-01T18:56:11.637Z,21.20
2023-05-01T18:58:42.507Z,20.90
2023-05-01T19:01:13.396Z,21.00
2023-05-01T19:03:44.402Z,21.20
2023-05-01T19:06:15.454Z,21.40
2023-05-01T19:08:46.366Z,21.30
2023-05-01T19:11:17.309Z,21.10
2023-05-01T19:13:48.924Z,21.20
2023-05-01T19:16:20.167Z,21.10
2023-05-01T19:18:51.136Z,21.10
2023-05-01T19:21:22.079Z,20.60
2023-05-01T19:23:52.935Z,20.50
2023-05-01T19:26:23.964Z,20.20
2023-05-01T19:28:55.229Z,20.10
2023-05-01T19:31:26.278Z,20.40
2023-05-01T19:33:57.283Z,20.80
2023-05-01T19:36:28.235Z,20.90
2023-05-01T19:38:59.137Z,20.70
2023-05-01T19:41:30.328Z,20.20
2023-05-01T19:44:01.466Z,20.50
2023-05-01T19:46:32.493Z,20.70
2023-05-01T19:49:03.369Z,20.50
2023-05-01T19:51:34.322Z,20.60
2023-05-01T19:54:05.179Z,20.70
2023-05-01T19:56:36.012Z,20.70
2023-05-01T19:59:07.007Z,20.80
2023-05-01T20:01:38.832Z,20.50
2023-05-01T20:04:09.803Z,20.10
2023-05-01T20:06:40.701Z,19.90
2023-05-01T20:09:11.749Z,19.80
2023-05-01T20:11:42.595Z,19.80
2023-05-01T20:14:13.467Z,19.80
2023-05-01T20:16:44.486Z,19.60
2023-05-01T20:19:17.729Z,19.70
2023-05-01T20:21:49.038Z,19.50
2023-05-01T20:24:21.784Z,19.70
2023-05-01T20:26:55.971Z,19.70
2023-05-01T20:29:27.078Z,19.60
2023-05-01T20:31:59.061Z,19.40
2023-05-01T20:34:30.104Z,19.50
2023-05-01T20:37:00.941Z,19.50
2023-05-01T20:39:31.829Z,19.40
2023-05-01T20:42:02.695Z,19.40
2023-05-01T20:44:33.708Z,19.20
2023-05-01T20:47:04.588Z,19.20
2023-05-01T20:49:35.579Z,19.50
2023-05-01T20:52:06.930Z,19.70
2023-05-01T20:54:37.932Z,19.40
2023-05-01T20:57:08.843Z,19.20
2023-05-01T20:59:39.725Z,19.10
2023-05-01T21:02:10.641Z,19.10
2023-05-01T21:04:41.788Z,19.20
2023-05-01T21:07:13.060Z,19.20
2023-05-01T21:09:45.722Z,19.00
2023-05-01T21:12:17.054Z,18.70
2023-05-01T21:14:48.004Z,18.80
2023-05-01T21:17:19.256Z,18.60
2023-05-01T21:19:50.225Z,18.60
2023-05-01T21:22:23.263Z,18.60
2023-05-01T21:24:59.381Z,18.50
2023-05-01T21:27:30.568Z,18.50
2023-05-01T21:30:02.659Z,18.50
2023-05-01T21:32:40.056Z,18.40
2023-05-01T21:35:15.585Z,18.20
2023-05-01T21:37:47.984Z,18.20
2023-05-01T21:40:19.325Z,18.30
2023-05-01T21:42:52.333Z,18.30
2023-05-01T21:45:23.611Z,18.50
2023-05-01T21:47:54.545Z,18.60
2023-05-01T21:50:25.584Z,18.60
2023-05-01T21:52:56.625Z,18.30
2023-05-01T21:55:27.600Z,18.30
2023-05-01T21:57:58.639Z,18.30
2023-05-01T22:00:30.185Z,18.40
2023-05-01T22:03:05.983Z,18.40
2023-05-01T22:05:40.970Z,18.40
2023-05-01T22:08:12.029Z,18.50
2023-05-01T22:10:43.078Z,18.40
2023-05-01T22:13:13.949Z,18.20
2023-05-01T22:15:48.662Z,18.20
2023-05-01T22:18:19.827Z,18.10
2023-05-01T22:20:50.758Z,18.10
2023-05-01T22:23:21.961Z,18.30
2023-05-01T22:25:59.773Z,18.20
2023-05-01T22:28:30.636Z,17.90
2023-05-01T22:31:01.513Z,17.90
2023-05-01T22:33:33.130Z,17.70
2023-05-01T22:36:07.344Z,17.90
2023-05-01T22:38:38.483Z,17.80
2023-05-01T22:41:09.478Z,17.80
2023-05-01T22:43:40.359Z,17.90
2023-05-01T22:46:11.435Z,18.00
2023-05-01T22:48:42.317Z,17.80
2023-05-01T22:51:13.140Z,17.80
2023-05-01T22:53:44.393Z,18.00
2023-05-01T22:56:15.309Z,17.90
2023-05-01T22:58:46.157Z,17.90
2023-05-01T23:01:17.062Z,17.90
2023-05-01T23:03:48.124Z,18.00
2023-05-01T23:06:19.744Z,17.80
2023-05-01T23:08:54.303Z,17.50
2023-05-01T23:11:31.249Z,17.30
2023-05-01T23:14:02.192Z,17.30
2023-05-01T23:16:42.500Z,17.40
2023-05-01T23:19:24.864Z,17.60
2023-05-01T23:22:10.817Z,17.30
2023-05-01T23:24:50.581Z,17.30
2023-05-01T23:27:22.649Z,17.20
2023-05-01T23:29:59.417Z,17.40
2023-05-01T23:32:31.884Z,17.60
2023-05-01T23:35:13.862Z,17.70
2023-05-01T23:37:45.190Z,17.60
2023-05-01T23:40:16.373Z,17.50
2023-05-01T23:42:47.412Z,17.40
2023-05-01T23:45:18.991Z,17.50
2023-05-01T23:47:49.888Z,17.70
2023-05-01T23:50:21.407Z,17.70
2023-05-01T23:52:52.620Z,17.50
2023-05-01T23:55:23.534Z,17.10
2023-05-01T23:57:55.489Z,17.10
